sensor_id;sensor_type;location;lat;lon;timestamp;P1;durP1;ratioP1;P2;durP2;ratioP2
17504;SDS011;8870;50.950;11.762;2023-04-24T00:04:56;0.90;;;0.60;;
17504;SDS011;8870;50.950;11.762;2023-04-24T00:10:28;0.88;;;0.70;;
17504;SDS011;8870;50.950;11.762;2023-04-24T00:15:46;0.60;;;0.60;;
17504;SDS011;8870;50.950;11.762;2023-04-24T00:21:19;0.70;;;0.70;;
17504;SDS011;8870;50.950;11.762;2023-04-24T00:26:40;0.65;;;0.60;;
17504;SDS011;8870;50.950;11.762;2023-04-24T00:32:11;0.60;;;0.60;;
17504;SDS011;8870;50.950;11.762;2023-04-24T00:37:32;0.60;;;0.60;;
17504;SDS011;8870;50.950;11.762;2023-04-24T00:43:04;0.80;;;0.50;;
17504;SDS011;8870;50.950;11.762;2023-04-24T00:48:22;1.17;;;0.52;;
17504;SDS011;8870;50.950;11.762;2023-04-24T00:53:56;1.17;;;0.60;;
17504;SDS011;8870;50.950;11.762;2023-04-24T00:59:22;0.95;;;0.70;;
17504;SDS011;8870;50.950;11.762;2023-04-24T01:04:53;1.00;;;0.60;;
17504;SDS011;8870;50.950;11.762;2023-04-24T01:10:13;1.13;;;0.70;;
17504;SDS011;8870;50.950;11.762;2023-04-24T01:15:46;1.60;;;0.73;;
17504;SDS011;8870;50.950;11.762;2023-04-24T01:21:04;1.40;;;0.70;;
17504;SDS011;8870;50.950;11.762;2023-04-24T01:26:40;1.10;;;0.98;;
17504;SDS011;8870;50.950;11.762;2023-04-24T01:31:59;2.25;;;1.00;;
17504;SDS011;8870;50.950;11.762;2023-04-24T01:37:36;1.33;;;0.91;;
17504;SDS011;8870;50.950;11.762;2023-04-24T01:42:58;1.25;;;0.90;;
17504;SDS011;8870;50.950;11.762;2023-04-24T01:48:29;1.65;;;0.80;;
17504;SDS011;8870;50.950;11.762;2023-04-24T01:53:48;0.82;;;0.80;;
17504;SDS011;8870;50.950;11.762;2023-04-24T01:59:21;1.10;;;1.00;;
17504;SDS011;8870;50.950;11.762;2023-04-24T02:04:57;0.95;;;0.95;;
17504;SDS011;8870;50.950;11.762;2023-04-24T02:10:15;1.10;;;1.00;;
17504;SDS011;8870;50.950;11.762;2023-04-24T02:15:49;1.23;;;1.00;;
17504;SDS011;8870;50.950;11.762;2023-04-24T02:21:09;1.10;;;1.00;;
17504;SDS011;8870;50.950;11.762;2023-04-24T02:26:40;1.13;;;0.88;;
17504;SDS011;8870;50.950;11.762;2023-04-24T02:32:13;0.80;;;0.80;;
17504;SDS011;8870;50.950;11.762;2023-04-24T02:37:32;2.70;;;0.80;;
17504;SDS011;8870;50.950;11.762;2023-04-24T02:43:03;1.20;;;0.80;;
17504;SDS011;8870;50.950;11.762;2023-04-24T02:48:23;1.40;;;0.90;;
17504;SDS011;8870;50.950;11.762;2023-04-24T02:53:55;1.17;;;0.73;;
17504;SDS011;8870;50.950;11.762;2023-04-24T02:59:20;1.55;;;0.70;;
17504;SDS011;8870;50.950;11.762;2023-04-24T03:04:54;1.23;;;0.70;;
17504;SDS011;8870;50.950;11.762;2023-04-24T03:10:13;2.58;;;0.70;;
17504;SDS011;8870;50.950;11.762;2023-04-24T03:15:44;1.13;;;0.57;;
17504;SDS011;8870;50.950;11.762;2023-04-24T03:21:04;1.60;;;0.60;;
17504;SDS011;8870;50.950;11.762;2023-04-24T03:26:36;0.63;;;0.45;;
17504;SDS011;8870;50.950;11.762;2023-04-24T03:32:14;1.08;;;0.60;;
17504;SDS011;8870;50.950;11.762;2023-04-24T03:37:47;0.40;;;0.40;;
17504;SDS011;8870;50.950;11.762;2023-04-24T03:43:28;0.52;;;0.50;;
17504;SDS011;8870;50.950;11.762;2023-04-24T03:49:01;1.05;;;0.68;;
17504;SDS011;8870;50.950;11.762;2023-04-24T03:54:24;0.80;;;0.65;;
17504;SDS011;8870;50.950;11.762;2023-04-24T03:59:57;1.13;;;0.80;;
17504;SDS011;8870;50.950;11.762;2023-04-24T04:05:35;1.95;;;0.65;;
17504;SDS011;8870;50.950;11.762;2023-04-24T04:10:55;1.83;;;0.90;;
17504;SDS011;8870;50.950;11.762;2023-04-24T04:16:27;0.85;;;0.60;;
17504;SDS011;8870;50.950;11.762;2023-04-24T04:21:45;1.98;;;0.80;;
17504;SDS011;8870;50.950;11.762;2023-04-24T04:27:27;1.25;;;0.70;;
17504;SDS011;8870;50.950;11.762;2023-04-24T04:32:47;0.85;;;0.68;;
17504;SDS011;8870;50.950;11.762;2023-04-24T04:38:19;2.25;;;0.65;;
17504;SDS011;8870;50.950;11.762;2023-04-24T04:43:50;0.85;;;0.57;;
17504;SDS011;8870;50.950;11.762;2023-04-24T05:00:30;1.30;;;0.50;;
17504;SDS011;8870;50.950;11.762;2023-04-24T05:06:08;1.85;;;0.70;;
17504;SDS011;8870;50.950;11.762;2023-04-24T05:11:33;0.68;;;0.60;;
17504;SDS011;8870;50.950;11.762;2023-04-24T05:22:28;0.60;;;0.60;;
17504;SDS011;8870;50.950;11.762;2023-04-24T05:28:01;1.08;;;0.60;;
17504;SDS011;8870;50.950;11.762;2023-04-24T05:33:30;1.23;;;0.63;;
17504;SDS011;8870;50.950;11.762;2023-04-24T05:39:03;0.90;;;0.60;;
17504;SDS011;8870;50.950;11.762;2023-04-24T05:44:22;2.83;;;0.70;;
17504;SDS011;8870;50.950;11.762;2023-04-24T05:49:56;3.28;;;0.60;;
17504;SDS011;8870;50.950;11.762;2023-04-24T05:55:15;2.22;;;0.50;;
17504;SDS011;8870;50.950;11.762;2023-04-24T06:00:47;1.23;;;0.60;;
17504;SDS011;8870;50.950;11.762;2023-04-24T06:06:22;2.47;;;0.70;;
17504;SDS011;8870;50.950;11.762;2023-04-24T06:11:43;1.55;;;0.60;;
17504;SDS011;8870;50.950;11.762;2023-04-24T06:17:27;1.27;;;0.65;;
17504;SDS011;8870;50.950;11.762;2023-04-24T06:22:49;3.67;;;0.50;;
17504;SDS011;8870;50.950;11.762;2023-04-24T06:28:21;2.50;;;0.60;;
17504;SDS011;8870;50.950;11.762;2023-04-24T06:33:39;1.90;;;0.70;;
17504;SDS011;8870;50.950;11.762;2023-04-24T06:39:12;1.33;;;0.63;;
17504;SDS011;8870;50.950;11.762;2023-04-24T06:44:31;2.70;;;0.70;;
17504;SDS011;8870;50.950;11.762;2023-04-24T06:50:02;1.25;;;0.57;;
17504;SDS011;8870;50.950;11.762;2023-04-24T06:55:23;1.75;;;0.50;;
17504;SDS011;8870;50.950;11.762;2023-04-24T07:00:55;0.65;;;0.40;;
17504;SDS011;8870;50.950;11.762;2023-04-24T07:06:26;2.90;;;0.40;;
17504;SDS011;8870;50.950;11.762;2023-04-24T07:11:47;0.63;;;0.40;;
17504;SDS011;8870;50.950;11.762;2023-04-24T07:17:20;1.02;;;0.30;;
17504;SDS011;8870;50.950;11.762;2023-04-24T07:22:38;2.33;;;0.30;;
17504;SDS011;8870;50.950;11.762;2023-04-24T07:28:12;2.05;;;0.40;;
17504;SDS011;8870;50.950;11.762;2023-04-24T07:33:32;0.22;;;0.20;;
17504;SDS011;8870;50.950;11.762;2023-04-24T07:39:03;2.35;;;0.40;;
17504;SDS011;8870;50.950;11.762;2023-04-24T07:44:23;2.63;;;0.35;;
17504;SDS011;8870;50.950;11.762;2023-04-24T07:49:55;1.52;;;0.40;;
17504;SDS011;8870;50.950;11.762;2023-04-24T07:55:13;1.38;;;0.32;;
17504;SDS011;8870;50.950;11.762;2023-04-24T08:00:47;0.82;;;0.40;;
17504;SDS011;8870;50.950;11.762;2023-04-24T08:06:19;0.30;;;0.30;;
17504;SDS011;8870;50.950;11.762;2023-04-24T08:11:37;0.82;;;0.40;;
17504;SDS011;8870;50.950;11.762;2023-04-24T08:17:10;1.15;;;0.40;;
17504;SDS011;8870;50.950;11.762;2023-04-24T08:22:29;0.20;;;0.20;;
17504;SDS011;8870;50.950;11.762;2023-04-24T08:28:00;0.63;;;0.20;;
17504;SDS011;8870;50.950;11.762;2023-04-24T08:33:22;0.55;;;0.32;;
17504;SDS011;8870;50.950;11.762;2023-04-24T08:38:56;1.00;;;0.20;;
17504;SDS011;8870;50.950;11.762;2023-04-24T08:44:14;3.17;;;0.35;;
17504;SDS011;8870;50.950;11.762;2023-04-24T08:49:48;0.65;;;0.40;;
17504;SDS011;8870;50.950;11.762;2023-04-24T08:55:09;0.73;;;0.38;;
17504;SDS011;8870;50.950;11.762;2023-04-24T09:00:42;0.82;;;0.40;;
17504;SDS011;8870;50.950;11.762;2023-04-24T09:06:15;0.30;;;0.22;;
17504;SDS011;8870;50.950;11.762;2023-04-24T09:11:35;0.20;;;0.20;;
17504;SDS011;8870;50.950;11.762;2023-04-24T09:17:08;0.40;;;0.20;;
17504;SDS011;8870;50.950;11.762;2023-04-24T09:22:32;0.50;;;0.20;;
17504;SDS011;8870;50.950;11.762;2023-04-24T09:28:29;0.43;;;0.20;;
17504;SDS011;8870;50.950;11.762;2023-04-24T09:33:56;0.50;;;0.20;;
17504;SDS011;8870;50.950;11.762;2023-04-24T09:39:31;0.50;;;0.32;;
17504;SDS011;8870;50.950;11.762;2023-04-24T09:44:50;0.50;;;0.20;;
17504;SDS011;8870;50.950;11.762;2023-04-24T09:50:30;0.57;;;0.25;;
17504;SDS011;8870;50.950;11.762;2023-04-24T09:55:52;0.20;;;0.20;;
17504;SDS011;8870;50.950;11.762;2023-04-24T10:01:29;0.32;;;0.20;;
17504;SDS011;8870;50.950;11.762;2023-04-24T10:07:04;0.97;;;0.40;;
17504;SDS011;8870;50.950;11.762;2023-04-24T10:12:27;0.30;;;0.30;;
17504;SDS011;8870;50.950;11.762;2023-04-24T10:17:58;0.38;;;0.30;;
17504;SDS011;8870;50.950;11.762;2023-04-24T10:23:17;0.65;;;0.32;;
17504;SDS011;8870;50.950;11.762;2023-04-24T10:28:52;0.77;;;0.25;;
17504;SDS011;8870;50.950;11.762;2023-04-24T10:34:15;1.20;;;0.30;;
17504;SDS011;8870;50.950;11.762;2023-04-24T10:39:50;1.85;;;0.30;;
17504;SDS011;8870;50.950;11.762;2023-04-24T10:45:19;1.23;;;0.30;;
17504;SDS011;8870;50.950;11.762;2023-04-24T10:50:52;0.68;;;0.30;;
17504;SDS011;8870;50.950;11.762;2023-04-24T10:56:11;0.57;;;0.30;;
17504;SDS011;8870;50.950;11.762;2023-04-24T11:01:44;0.28;;;0.20;;
17504;SDS011;8870;50.950;11.762;2023-04-24T11:07:24;1.40;;;0.30;;
17504;SDS011;8870;50.950;11.762;2023-04-24T11:12:43;0.73;;;0.30;;
17504;SDS011;8870;50.950;11.762;2023-04-24T11:18:16;0.95;;;0.30;;
17504;SDS011;8870;50.950;11.762;2023-04-24T11:23:35;0.20;;;0.20;;
17504;SDS011;8870;50.950;11.762;2023-04-24T11:29:07;0.75;;;0.22;;
17504;SDS011;8870;50.950;11.762;2023-04-24T11:34:32;0.63;;;0.20;;
17504;SDS011;8870;50.950;11.762;2023-04-24T11:40:04;1.15;;;0.40;;
17504;SDS011;8870;50.950;11.762;2023-04-24T11:45:26;2.25;;;0.30;;
17504;SDS011;8870;50.950;11.762;2023-04-24T11:51:03;0.60;;;0.30;;
17504;SDS011;8870;50.950;11.762;2023-04-24T11:56:26;0.30;;;0.30;;
17504;SDS011;8870;50.950;11.762;2023-04-24T12:07:42;2.03;;;0.30;;
17504;SDS011;8870;50.950;11.762;2023-04-24T12:13:00;0.63;;;0.20;;
17504;SDS011;8870;50.950;11.762;2023-04-24T12:18:31;0.60;;;0.22;;
17504;SDS011;8870;50.950;11.762;2023-04-24T12:23:53;0.50;;;0.22;;
17504;SDS011;8870;50.950;11.762;2023-04-24T12:29:26;0.25;;;0.20;;
17504;SDS011;8870;50.950;11.762;2023-04-24T12:34:44;0.20;;;0.20;;
17504;SDS011;8870;50.950;11.762;2023-04-24T12:40:19;0.50;;;0.30;;
17504;SDS011;8870;50.950;11.762;2023-04-24T12:45:38;0.70;;;0.30;;
17504;SDS011;8870;50.950;11.762;2023-04-24T12:51:10;1.45;;;0.30;;
17504;SDS011;8870;50.950;11.762;2023-04-24T12:56:31;0.20;;;0.20;;
17504;SDS011;8870;50.950;11.762;2023-04-24T13:02:02;0.25;;;0.20;;
17504;SDS011;8870;50.950;11.762;2023-04-24T13:07:33;1.15;;;0.28;;
17504;SDS011;8870;50.950;11.762;2023-04-24T13:13:07;0.25;;;0.22;;
17504;SDS011;8870;50.950;11.762;2023-04-24T13:18:25;0.22;;;0.20;;
17504;SDS011;8870;50.950;11.762;2023-04-24T13:23:56;0.80;;;0.30;;
17504;SDS011;8870;50.950;11.762;2023-04-24T13:29:17;0.65;;;0.28;;
17504;SDS011;8870;50.950;11.762;2023-04-24T13:34:48;1.23;;;0.28;;
17504;SDS011;8870;50.950;11.762;2023-04-24T13:40:07;0.60;;;0.20;;
17504;SDS011;8870;50.950;11.762;2023-04-24T13:45:42;0.20;;;0.20;;
17504;SDS011;8870;50.950;11.762;2023-04-24T13:51:00;0.40;;;0.40;;
17504;SDS011;8870;50.950;11.762;2023-04-24T13:56:32;0.90;;;0.40;;
17504;SDS011;8870;50.950;11.762;2023-04-24T14:02:00;0.52;;;0.35;;
17504;SDS011;8870;50.950;11.762;2023-04-24T14:07:31;0.40;;;0.30;;
17504;SDS011;8870;50.950;11.762;2023-04-24T14:12:49;1.55;;;0.20;;
17504;SDS011;8870;50.950;11.762;2023-04-24T14:18:24;1.75;;;0.20;;
17504;SDS011;8870;50.950;11.762;2023-04-24T14:23:42;0.40;;;0.20;;
17504;SDS011;8870;50.950;11.762;2023-04-24T14:29:13;0.10;;;0.10;;
17504;SDS011;8870;50.950;11.762;2023-04-24T14:34:35;0.50;;;0.10;;
17504;SDS011;8870;50.950;11.762;2023-04-24T14:40:07;0.20;;;0.10;;
17504;SDS011;8870;50.950;11.762;2023-04-24T14:45:45;0.00;;;0.00;;
17504;SDS011;8870;50.950;11.762;2023-04-24T14:51:19;0.10;;;0.00;;
17504;SDS011;8870;50.950;11.762;2023-04-24T14:56:37;0.00;;;0.00;;
17504;SDS011;8870;50.950;11.762;2023-04-24T15:02:09;0.20;;;0.10;;
17504;SDS011;8870;50.950;11.762;2023-04-24T15:07:43;0.10;;;0.10;;
17504;SDS011;8870;50.950;11.762;2023-04-24T15:13:01;0.77;;;0.10;;
17504;SDS011;8870;50.950;11.762;2023-04-24T15:18:33;0.00;;;0.00;;
17504;SDS011;8870;50.950;11.762;2023-04-24T15:23:54;0.17;;;0.10;;
17504;SDS011;8870;50.950;11.762;2023-04-24T15:29:25;1.02;;;0.10;;
17504;SDS011;8870;50.950;11.762;2023-04-24T15:34:44;1.75;;;0.10;;
17504;SDS011;8870;50.950;11.762;2023-04-24T15:40:25;0.08;;;0.08;;
17504;SDS011;8870;50.950;11.762;2023-04-24T15:45:44;0.10;;;0.10;;
17504;SDS011;8870;50.950;11.762;2023-04-24T15:51:16;0.00;;;0.00;;
17504;SDS011;8870;50.950;11.762;2023-04-24T15:56:44;0.30;;;0.10;;
17504;SDS011;8870;50.950;11.762;2023-04-24T16:02:16;0.15;;;0.10;;
17504;SDS011;8870;50.950;11.762;2023-04-24T16:07:48;0.20;;;0.10;;
17504;SDS011;8870;50.950;11.762;2023-04-24T16:13:09;0.15;;;0.03;;
17504;SDS011;8870;50.950;11.762;2023-04-24T16:18:47;0.20;;;0.10;;
17504;SDS011;8870;50.950;11.762;2023-04-24T16:24:07;0.00;;;0.00;;
17504;SDS011;8870;50.950;11.762;2023-04-24T16:29:41;1.08;;;0.20;;
17504;SDS011;8870;50.950;11.762;2023-04-24T16:35:00;0.10;;;0.10;;
17504;SDS011;8870;50.950;11.762;2023-04-24T16:40:31;0.10;;;0.10;;
17504;SDS011;8870;50.950;11.762;2023-04-24T16:45:53;1.38;;;0.20;;
17504;SDS011;8870;50.950;11.762;2023-04-24T16:51:24;1.55;;;0.20;;
17504;SDS011;8870;50.950;11.762;2023-04-24T16:56:43;0.10;;;0.10;;
17504;SDS011;8870;50.950;11.762;2023-04-24T17:02:18;0.20;;;0.20;;
17504;SDS011;8870;50.950;11.762;2023-04-24T17:07:49;0.43;;;0.30;;
17504;SDS011;8870;50.950;11.762;2023-04-24T17:13:07;0.73;;;0.40;;
17504;SDS011;8870;50.950;11.762;2023-04-24T17:18:42;0.30;;;0.30;;
17504;SDS011;8870;50.950;11.762;2023-04-24T17:24:00;0.45;;;0.30;;
17504;SDS011;8870;50.950;11.762;2023-04-24T17:29:31;0.60;;;0.50;;
17504;SDS011;8870;50.950;11.762;2023-04-24T17:34:54;0.52;;;0.52;;
17504;SDS011;8870;50.950;11.762;2023-04-24T17:40:26;0.70;;;0.50;;
17504;SDS011;8870;50.950;11.762;2023-04-24T17:45:44;0.60;;;0.60;;
17504;SDS011;8870;50.950;11.762;2023-04-24T17:51:20;0.50;;;0.50;;
17504;SDS011;8870;50.950;11.762;2023-04-24T17:56:46;0.60;;;0.60;;
17504;SDS011;8870;50.950;11.762;2023-04-24T18:02:17;0.50;;;0.50;;
17504;SDS011;8870;50.950;11.762;2023-04-24T18:07:51;1.00;;;0.60;;
17504;SDS011;8870;50.950;11.762;2023-04-24T18:13:09;1.00;;;0.70;;
17504;SDS011;8870;50.950;11.762;2023-04-24T18:18:40;0.93;;;0.43;;
17504;SDS011;8870;50.950;11.762;2023-04-24T18:24:01;2.47;;;0.70;;
17504;SDS011;8870;50.950;11.762;2023-04-24T18:29:32;0.50;;;0.50;;
17504;SDS011;8870;50.950;11.762;2023-04-24T18:34:50;0.73;;;0.63;;
17504;SDS011;8870;50.950;11.762;2023-04-24T18:40:27;1.00;;;0.68;;
17504;SDS011;8870;50.950;11.762;2023-04-24T18:45:45;1.30;;;0.77;;
17504;SDS011;8870;50.950;11.762;2023-04-24T18:56:34;1.00;;;0.70;;
17504;SDS011;8870;50.950;11.762;2023-04-24T19:02:09;1.40;;;0.70;;
17504;SDS011;8870;50.950;11.762;2023-04-24T19:13:22;1.05;;;0.70;;
17504;SDS011;8870;50.950;11.762;2023-04-24T19:18:53;1.50;;;1.00;;
17504;SDS011;8870;50.950;11.762;2023-04-24T19:24:12;1.00;;;0.88;;
17504;SDS011;8870;50.950;11.762;2023-04-24T19:29:47;1.00;;;0.88;;
17504;SDS011;8870;50.950;11.762;2023-04-24T19:35:06;1.13;;;1.00;;
17504;SDS011;8870;50.950;11.762;2023-04-24T19:40:38;1.45;;;1.00;;
17504;SDS011;8870;50.950;11.762;2023-04-24T19:45:59;1.25;;;1.00;;
17504;SDS011;8870;50.950;11.762;2023-04-24T19:51:31;1.50;;;1.10;;
17504;SDS011;8870;50.950;11.762;2023-04-24T19:56:53;1.73;;;1.00;;
17504;SDS011;8870;50.950;11.762;2023-04-24T20:02:28;1.98;;;1.00;;
17504;SDS011;8870;50.950;11.762;2023-04-24T20:07:47;1.42;;;1.05;;
17504;SDS011;8870;50.950;11.762;2023-04-24T20:13:18;1.42;;;1.00;;
17504;SDS011;8870;50.950;11.762;2023-04-24T20:18:39;1.67;;;1.02;;
17504;SDS011;8870;50.950;11.762;2023-04-24T20:24:11;1.60;;;1.05;;
17504;SDS011;8870;50.950;11.762;2023-04-24T20:29:29;1.92;;;1.10;;
17504;SDS011;8870;50.950;11.762;2023-04-24T20:35:03;2.22;;;1.10;;
17504;SDS011;8870;50.950;11.762;2023-04-24T20:40:22;2.45;;;1.30;;
17504;SDS011;8870;50.950;11.762;2023-04-24T20:46:10;4.23;;;1.30;;
17504;SDS011;8870;50.950;11.762;2023-04-24T20:51:32;2.20;;;1.23;;
17504;SDS011;8870;50.950;11.762;2023-04-24T20:57:05;1.70;;;1.00;;
17504;SDS011;8870;50.950;11.762;2023-04-24T21:02:31;3.30;;;1.40;;
17504;SDS011;8870;50.950;11.762;2023-04-24T21:08:06;1.50;;;1.10;;
17504;SDS011;8870;50.950;11.762;2023-04-24T21:13:25;1.95;;;1.20;;
17504;SDS011;8870;50.950;11.762;2023-04-24T21:18:56;2.85;;;1.30;;
17504;SDS011;8870;50.950;11.762;2023-04-24T21:24:17;2.72;;;1.30;;
17504;SDS011;8870;50.950;11.762;2023-04-24T21:29:48;2.40;;;1.35;;
17504;SDS011;8870;50.950;11.762;2023-04-24T21:35:07;1.50;;;1.00;;
17504;SDS011;8870;50.950;11.762;2023-04-24T21:40:41;4.85;;;1.23;;
17504;SDS011;8870;50.950;11.762;2023-04-24T21:46:00;4.20;;;1.50;;
17504;SDS011;8870;50.950;11.762;2023-04-24T21:51:31;2.67;;;1.40;;
17504;SDS011;8870;50.950;11.762;2023-04-24T21:56:52;2.65;;;1.33;;
17504;SDS011;8870;50.950;11.762;2023-04-24T22:02:23;2.25;;;1.45;;
17504;SDS011;8870;50.950;11.762;2023-04-24T22:07:54;2.03;;;1.20;;
17504;SDS011;8870;50.950;11.762;2023-04-24T22:13:16;4.25;;;1.67;;
17504;SDS011;8870;50.950;11.762;2023-04-24T22:18:47;3.75;;;1.63;;
17504;SDS011;8870;50.950;11.762;2023-04-24T22:24:07;2.35;;;1.40;;
17504;SDS011;8870;50.950;11.762;2023-04-24T22:29:42;3.28;;;1.60;;
17504;SDS011;8870;50.950;11.762;2023-04-24T22:35:00;3.33;;;1.80;;
17504;SDS011;8870;50.950;11.762;2023-04-24T22:40:31;5.13;;;1.88;;
17504;SDS011;8870;50.950;11.762;2023-04-24T22:45:52;5.07;;;1.67;;
17504;SDS011;8870;50.950;11.762;2023-04-24T22:51:24;3.28;;;1.80;;
17504;SDS011;8870;50.950;11.762;2023-04-24T22:56:44;3.95;;;1.90;;
17504;SDS011;8870;50.950;11.762;2023-04-24T23:02:19;3.83;;;1.95;;
17504;SDS011;8870;50.950;11.762;2023-04-24T23:07:53;2.92;;;1.83;;
17504;SDS011;8870;50.950;11.762;2023-04-24T23:13:11;3.53;;;2.00;;
17504;SDS011;8870;50.950;11.762;2023-04-24T23:18:45;3.20;;;2.00;;
17504;SDS011;8870;50.950;11.762;2023-04-24T23:24:04;3.83;;;1.92;;
17504;SDS011;8870;50.950;11.762;2023-04-24T23:29:35;3.38;;;1.98;;
17504;SDS011;8870;50.950;11.762;2023-04-24T23:34:56;3.53;;;1.75;;
17504;SDS011;8870;50.950;11.762;2023-04-24T23:40:29;4.68;;;2.30;;
17504;SDS011;8870;50.950;11.762;2023-04-24T23:45:47;4.80;;;1.95;;
17504;SDS011;8870;50.950;11.762;2023-04-24T23:51:22;3.22;;;2.00;;
17504;SDS011;8870;50.950;11.762;2023-04-24T23:56:40;4.43;;;2.17;;
